sensor_id;sensor_type;location;lat;lon;timestamp;P1;durP1;ratioP1;P2;durP2;ratioP2
51943;SDS011;37969;53.132;6.370;2022-12-29T00:01:13;7.63;;;6.88;;
51943;SDS011;37969;53.132;6.370;2022-12-29T00:03:40;7.65;;;6.95;;
51943;SDS011;37969;53.132;6.370;2022-12-29T00:06:06;8.45;;;6.82;;
51943;SDS011;37969;53.132;6.370;2022-12-29T00:08:32;7.63;;;6.97;;
51943;SDS011;37969;53.132;6.370;2022-12-29T00:11:06;7.47;;;6.70;;
51943;SDS011;37969;53.132;6.370;2022-12-29T00:13:33;6.43;;;5.82;;
51943;SDS011;37969;53.132;6.370;2022-12-29T00:16:18;7.13;;;6.40;;
51943;SDS011;37969;53.132;6.370;2022-12-29T00:18:44;6.85;;;6.22;;
51943;SDS011;37969;53.132;6.370;2022-12-29T00:21:13;7.13;;;6.30;;
51943;SDS011;37969;53.132;6.370;2022-12-29T00:23:58;7.38;;;6.18;;
51943;SDS011;37969;53.132;6.370;2022-12-29T00:26:55;6.63;;;5.93;;
51943;SDS011;37969;53.132;6.370;2022-12-29T00:29:41;6.20;;;5.70;;
51943;SDS011;37969;53.132;6.370;2022-12-29T00:32:25;7.40;;;6.40;;
51943;SDS011;37969;53.132;6.370;2022-12-29T00:35:11;7.20;;;6.50;;
51943;SDS011;37969;53.132;6.370;2022-12-29T00:37:40;6.93;;;6.13;;
51943;SDS011;37969;53.132;6.370;2022-12-29T00:40:26;7.60;;;6.70;;
51943;SDS011;37969;53.132;6.370;2022-12-29T00:43:11;7.00;;;6.38;;
51943;SDS011;37969;53.132;6.370;2022-12-29T00:45:56;6.75;;;6.03;;
51943;SDS011;37969;53.132;6.370;2022-12-29T00:48:22;7.95;;;7.20;;
51943;SDS011;37969;53.132;6.370;2022-12-29T00:51:07;7.10;;;6.45;;
51943;SDS011;37969;53.132;6.370;2022-12-29T00:53:33;7.25;;;6.55;;
51943;SDS011;37969;53.132;6.370;2022-12-29T00:56:00;7.85;;;6.53;;
51943;SDS011;37969;53.132;6.370;2022-12-29T00:58:27;7.72;;;6.88;;
51943;SDS011;37969;53.132;6.370;2022-12-29T01:01:00;7.20;;;6.40;;
51943;SDS011;37969;53.132;6.370;2022-12-29T01:03:26;7.25;;;6.65;;
51943;SDS011;37969;53.132;6.370;2022-12-29T01:05:52;5.93;;;5.32;;
51943;SDS011;37969;53.132;6.370;2022-12-29T01:08:19;9.43;;;6.45;;
51943;SDS011;37969;53.132;6.370;2022-12-29T01:10:45;6.78;;;6.07;;
51943;SDS011;37969;53.132;6.370;2022-12-29T01:13:11;6.88;;;5.85;;
51943;SDS011;37969;53.132;6.370;2022-12-29T01:15:37;6.05;;;5.45;;
51943;SDS011;37969;53.132;6.370;2022-12-29T01:18:03;8.43;;;5.97;;
51943;SDS011;37969;53.132;6.370;2022-12-29T01:20:29;5.60;;;5.20;;
51943;SDS011;37969;53.132;6.370;2022-12-29T01:22:55;7.80;;;5.90;;
51943;SDS011;37969;53.132;6.370;2022-12-29T01:25:21;6.85;;;6.20;;
51943;SDS011;37969;53.132;6.370;2022-12-29T01:27:48;8.63;;;5.80;;
51943;SDS011;37969;53.132;6.370;2022-12-29T01:30:14;6.07;;;5.30;;
51943;SDS011;37969;53.132;6.370;2022-12-29T01:32:40;5.93;;;5.43;;
51943;SDS011;37969;53.132;6.370;2022-12-29T01:35:06;6.93;;;5.43;;
51943;SDS011;37969;53.132;6.370;2022-12-29T01:37:32;9.73;;;6.85;;
51943;SDS011;37969;53.132;6.370;2022-12-29T01:39:58;9.23;;;6.40;;
51943;SDS011;37969;53.132;6.370;2022-12-29T01:42:25;7.55;;;6.72;;
51943;SDS011;37969;53.132;6.370;2022-12-29T01:44:54;7.78;;;6.95;;
51943;SDS011;37969;53.132;6.370;2022-12-29T01:47:32;8.27;;;6.60;;
51943;SDS011;37969;53.132;6.370;2022-12-29T01:50:05;9.73;;;7.72;;
51943;SDS011;37969;53.132;6.370;2022-12-29T01:52:33;8.65;;;7.13;;
51943;SDS011;37969;53.132;6.370;2022-12-29T01:55:01;8.48;;;7.60;;
51943;SDS011;37969;53.132;6.370;2022-12-29T01:57:28;7.55;;;6.88;;
51943;SDS011;37969;53.132;6.370;2022-12-29T01:59:56;9.38;;;7.40;;
51943;SDS011;37969;53.132;6.370;2022-12-29T02:02:24;7.97;;;7.18;;
51943;SDS011;37969;53.132;6.370;2022-12-29T02:04:50;7.20;;;6.47;;
51943;SDS011;37969;53.132;6.370;2022-12-29T02:07:19;5.65;;;5.15;;
51943;SDS011;37969;53.132;6.370;2022-12-29T02:09:47;6.55;;;5.65;;
51943;SDS011;37969;53.132;6.370;2022-12-29T02:12:14;5.90;;;4.67;;
51943;SDS011;37969;53.132;6.370;2022-12-29T02:14:40;6.40;;;4.05;;
51943;SDS011;37969;53.132;6.370;2022-12-29T02:17:08;4.45;;;4.05;;
51943;SDS011;37969;53.132;6.370;2022-12-29T02:19:54;9.20;;;5.10;;
51943;SDS011;37969;53.132;6.370;2022-12-29T02:22:32;5.55;;;4.00;;
51943;SDS011;37969;53.132;6.370;2022-12-29T02:27:55;4.30;;;4.00;;
51943;SDS011;37969;53.132;6.370;2022-12-29T02:33:01;5.43;;;4.10;;
51943;SDS011;37969;53.132;6.370;2022-12-29T02:35:36;4.38;;;3.75;;
51943;SDS011;37969;53.132;6.370;2022-12-29T02:40:33;4.22;;;3.50;;
51943;SDS011;37969;53.132;6.370;2022-12-29T02:43:10;5.13;;;3.20;;
51943;SDS011;37969;53.132;6.370;2022-12-29T02:48:15;5.20;;;3.20;;
51943;SDS011;37969;53.132;6.370;2022-12-29T02:50:48;3.42;;;2.83;;
51943;SDS011;37969;53.132;6.370;2022-12-29T02:53:17;3.78;;;2.88;;
51943;SDS011;37969;53.132;6.370;2022-12-29T02:56:05;4.82;;;3.03;;
51943;SDS011;37969;53.132;6.370;2022-12-29T02:58:31;5.38;;;3.13;;
51943;SDS011;37969;53.132;6.370;2022-12-29T03:03:28;2.65;;;2.45;;
51943;SDS011;37969;53.132;6.370;2022-12-29T03:06:05;9.02;;;2.90;;
51943;SDS011;37969;53.132;6.370;2022-12-29T03:08:48;3.00;;;2.67;;
51943;SDS011;37969;53.132;6.370;2022-12-29T03:11:15;5.57;;;2.30;;
51943;SDS011;37969;53.132;6.370;2022-12-29T03:16:52;1.80;;;1.55;;
51943;SDS011;37969;53.132;6.370;2022-12-29T03:19:21;3.45;;;1.90;;
51943;SDS011;37969;53.132;6.370;2022-12-29T03:24:35;3.50;;;1.98;;
51943;SDS011;37969;53.132;6.370;2022-12-29T03:27:02;3.00;;;1.85;;
51943;SDS011;37969;53.132;6.370;2022-12-29T03:29:30;3.40;;;2.28;;
51943;SDS011;37969;53.132;6.370;2022-12-29T03:31:58;3.08;;;1.40;;
51943;SDS011;37969;53.132;6.370;2022-12-29T03:34:25;1.65;;;1.45;;
51943;SDS011;37969;53.132;6.370;2022-12-29T03:36:56;5.35;;;2.22;;
51943;SDS011;37969;53.132;6.370;2022-12-29T03:39:24;3.88;;;1.70;;
51943;SDS011;37969;53.132;6.370;2022-12-29T03:41:52;5.20;;;1.60;;
51943;SDS011;37969;53.132;6.370;2022-12-29T03:44:21;4.47;;;1.80;;
51943;SDS011;37969;53.132;6.370;2022-12-29T03:46:56;2.50;;;1.20;;
51943;SDS011;37969;53.132;6.370;2022-12-29T03:49:22;4.70;;;2.00;;
51943;SDS011;37969;53.132;6.370;2022-12-29T03:51:48;5.63;;;1.90;;
51943;SDS011;37969;53.132;6.370;2022-12-29T03:54:15;3.47;;;1.90;;
51943;SDS011;37969;53.132;6.370;2022-12-29T03:56:41;4.35;;;1.80;;
51943;SDS011;37969;53.132;6.370;2022-12-29T03:59:07;4.40;;;1.83;;
51943;SDS011;37969;53.132;6.370;2022-12-29T04:01:34;5.68;;;2.17;;
51943;SDS011;37969;53.132;6.370;2022-12-29T04:04:00;3.30;;;2.30;;
51943;SDS011;37969;53.132;6.370;2022-12-29T04:06:26;7.45;;;1.98;;
51943;SDS011;37969;53.132;6.370;2022-12-29T04:08:52;4.80;;;2.00;;
51943;SDS011;37969;53.132;6.370;2022-12-29T04:11:18;7.45;;;2.35;;
51943;SDS011;37969;53.132;6.370;2022-12-29T04:13:44;4.65;;;1.77;;
51943;SDS011;37969;53.132;6.370;2022-12-29T04:16:10;7.22;;;1.85;;
51943;SDS011;37969;53.132;6.370;2022-12-29T04:18:37;4.10;;;1.50;;
51943;SDS011;37969;53.132;6.370;2022-12-29T04:21:03;5.03;;;1.25;;
51943;SDS011;37969;53.132;6.370;2022-12-29T04:23:31;10.38;;;1.80;;
51943;SDS011;37969;53.132;6.370;2022-12-29T04:25:57;4.38;;;1.45;;
51943;SDS011;37969;53.132;6.370;2022-12-29T04:28:24;7.03;;;1.30;;
51943;SDS011;37969;53.132;6.370;2022-12-29T04:30:50;7.78;;;2.03;;
51943;SDS011;37969;53.132;6.370;2022-12-29T04:33:16;5.95;;;1.88;;
51943;SDS011;37969;53.132;6.370;2022-12-29T04:35:43;12.20;;;1.40;;
51943;SDS011;37969;53.132;6.370;2022-12-29T04:38:09;6.97;;;1.70;;
51943;SDS011;37969;53.132;6.370;2022-12-29T04:40:35;3.42;;;0.75;;
51943;SDS011;37969;53.132;6.370;2022-12-29T04:43:03;7.40;;;1.40;;
51943;SDS011;37969;53.132;6.370;2022-12-29T04:45:29;6.05;;;1.38;;
51943;SDS011;37969;53.132;6.370;2022-12-29T04:47:56;11.15;;;1.80;;
51943;SDS011;37969;53.132;6.370;2022-12-29T04:50:22;6.00;;;1.40;;
51943;SDS011;37969;53.132;6.370;2022-12-29T04:52:48;5.55;;;1.10;;
51943;SDS011;37969;53.132;6.370;2022-12-29T04:55:14;6.97;;;1.52;;
51943;SDS011;37969;53.132;6.370;2022-12-29T04:57:40;9.65;;;1.70;;
51943;SDS011;37969;53.132;6.370;2022-12-29T05:00:07;10.13;;;2.05;;
51943;SDS011;37969;53.132;6.370;2022-12-29T05:02:34;12.43;;;2.63;;
51943;SDS011;37969;53.132;6.370;2022-12-29T05:05:00;11.88;;;2.28;;
51943;SDS011;37969;53.132;6.370;2022-12-29T05:07:27;8.15;;;2.30;;
51943;SDS011;37969;53.132;6.370;2022-12-29T05:09:53;8.98;;;1.90;;
51943;SDS011;37969;53.132;6.370;2022-12-29T05:12:19;8.60;;;2.15;;
51943;SDS011;37969;53.132;6.370;2022-12-29T05:14:45;9.63;;;2.15;;
51943;SDS011;37969;53.132;6.370;2022-12-29T05:17:11;12.90;;;2.42;;
51943;SDS011;37969;53.132;6.370;2022-12-29T05:19:37;13.07;;;2.28;;
51943;SDS011;37969;53.132;6.370;2022-12-29T05:22:03;12.70;;;2.20;;
51943;SDS011;37969;53.132;6.370;2022-12-29T05:24:30;15.85;;;2.50;;
51943;SDS011;37969;53.132;6.370;2022-12-29T05:26:56;10.13;;;2.47;;
51943;SDS011;37969;53.132;6.370;2022-12-29T05:29:22;10.77;;;2.42;;
51943;SDS011;37969;53.132;6.370;2022-12-29T05:31:48;15.43;;;2.63;;
51943;SDS011;37969;53.132;6.370;2022-12-29T05:34:14;12.63;;;2.53;;
51943;SDS011;37969;53.132;6.370;2022-12-29T05:36:40;13.45;;;2.28;;
51943;SDS011;37969;53.132;6.370;2022-12-29T05:39:06;8.90;;;2.00;;
51943;SDS011;37969;53.132;6.370;2022-12-29T05:41:33;12.43;;;2.78;;
51943;SDS011;37969;53.132;6.370;2022-12-29T05:43:59;13.75;;;2.38;;
51943;SDS011;37969;53.132;6.370;2022-12-29T05:46:26;14.13;;;2.55;;
51943;SDS011;37969;53.132;6.370;2022-12-29T05:48:52;14.32;;;2.85;;
51943;SDS011;37969;53.132;6.370;2022-12-29T05:51:18;13.60;;;2.08;;
51943;SDS011;37969;53.132;6.370;2022-12-29T05:53:44;9.98;;;1.92;;
51943;SDS011;37969;53.132;6.370;2022-12-29T05:56:10;11.48;;;2.80;;
51943;SDS011;37969;53.132;6.370;2022-12-29T05:58:36;14.48;;;2.85;;
51943;SDS011;37969;53.132;6.370;2022-12-29T06:01:03;15.45;;;2.30;;
51943;SDS011;37969;53.132;6.370;2022-12-29T06:03:29;17.00;;;2.53;;
51943;SDS011;37969;53.132;6.370;2022-12-29T06:05:55;12.57;;;2.85;;
51943;SDS011;37969;53.132;6.370;2022-12-29T06:08:21;13.57;;;2.38;;
51943;SDS011;37969;53.132;6.370;2022-12-29T06:10:47;12.10;;;2.28;;
51943;SDS011;37969;53.132;6.370;2022-12-29T06:13:13;10.07;;;1.85;;
51943;SDS011;37969;53.132;6.370;2022-12-29T06:15:39;16.80;;;2.13;;
51943;SDS011;37969;53.132;6.370;2022-12-29T06:18:06;16.23;;;2.40;;
51943;SDS011;37969;53.132;6.370;2022-12-29T06:20:32;16.98;;;2.50;;
51943;SDS011;37969;53.132;6.370;2022-12-29T06:22:58;15.20;;;2.30;;
51943;SDS011;37969;53.132;6.370;2022-12-29T06:25:24;11.90;;;2.42;;
51943;SDS011;37969;53.132;6.370;2022-12-29T06:27:50;20.85;;;3.00;;
51943;SDS011;37969;53.132;6.370;2022-12-29T06:30:16;15.57;;;2.28;;
51943;SDS011;37969;53.132;6.370;2022-12-29T06:32:43;23.10;;;3.25;;
51943;SDS011;37969;53.132;6.370;2022-12-29T06:35:09;15.73;;;2.60;;
51943;SDS011;37969;53.132;6.370;2022-12-29T06:37:35;17.33;;;2.70;;
51943;SDS011;37969;53.132;6.370;2022-12-29T06:40:02;17.02;;;2.83;;
51943;SDS011;37969;53.132;6.370;2022-12-29T06:42:28;16.70;;;2.75;;
51943;SDS011;37969;53.132;6.370;2022-12-29T06:44:54;20.38;;;3.28;;
51943;SDS011;37969;53.132;6.370;2022-12-29T06:47:23;14.73;;;2.53;;
51943;SDS011;37969;53.132;6.370;2022-12-29T06:49:49;15.35;;;2.47;;
51943;SDS011;37969;53.132;6.370;2022-12-29T06:52:15;19.23;;;3.03;;
51943;SDS011;37969;53.132;6.370;2022-12-29T06:54:42;16.95;;;3.75;;
51943;SDS011;37969;53.132;6.370;2022-12-29T06:57:08;17.38;;;3.10;;
51943;SDS011;37969;53.132;6.370;2022-12-29T06:59:34;16.23;;;3.22;;
51943;SDS011;37969;53.132;6.370;2022-12-29T07:02:00;18.10;;;3.05;;
51943;SDS011;37969;53.132;6.370;2022-12-29T07:04:28;20.35;;;2.75;;
51943;SDS011;37969;53.132;6.370;2022-12-29T07:06:54;19.98;;;3.03;;
51943;SDS011;37969;53.132;6.370;2022-12-29T07:09:20;16.80;;;2.72;;
51943;SDS011;37969;53.132;6.370;2022-12-29T07:11:47;18.15;;;3.20;;
51943;SDS011;37969;53.132;6.370;2022-12-29T07:14:13;20.92;;;2.92;;
51943;SDS011;37969;53.132;6.370;2022-12-29T07:16:39;15.40;;;2.90;;
51943;SDS011;37969;53.132;6.370;2022-12-29T07:19:05;25.33;;;3.47;;
51943;SDS011;37969;53.132;6.370;2022-12-29T07:21:31;15.00;;;3.38;;
51943;SDS011;37969;53.132;6.370;2022-12-29T07:23:57;20.52;;;3.05;;
51943;SDS011;37969;53.132;6.370;2022-12-29T07:26:23;19.83;;;2.75;;
51943;SDS011;37969;53.132;6.370;2022-12-29T07:28:50;23.13;;;2.80;;
51943;SDS011;37969;53.132;6.370;2022-12-29T07:31:18;19.02;;;2.78;;
51943;SDS011;37969;53.132;6.370;2022-12-29T07:33:44;18.40;;;2.50;;
51943;SDS011;37969;53.132;6.370;2022-12-29T07:36:11;14.85;;;2.70;;
51943;SDS011;37969;53.132;6.370;2022-12-29T07:38:38;13.55;;;2.80;;
51943;SDS011;37969;53.132;6.370;2022-12-29T07:41:04;19.15;;;3.22;;
51943;SDS011;37969;53.132;6.370;2022-12-29T07:43:30;15.80;;;3.05;;
51943;SDS011;37969;53.132;6.370;2022-12-29T07:45:57;15.75;;;3.08;;
51943;SDS011;37969;53.132;6.370;2022-12-29T07:48:23;13.93;;;2.65;;
51943;SDS011;37969;53.132;6.370;2022-12-29T07:50:49;21.75;;;3.60;;
51943;SDS011;37969;53.132;6.370;2022-12-29T07:53:16;19.85;;;3.85;;
51943;SDS011;37969;53.132;6.370;2022-12-29T07:55:42;16.75;;;3.28;;
51943;SDS011;37969;53.132;6.370;2022-12-29T07:58:08;19.05;;;3.67;;
51943;SDS011;37969;53.132;6.370;2022-12-29T08:00:34;17.85;;;3.05;;
51943;SDS011;37969;53.132;6.370;2022-12-29T08:03:01;20.92;;;3.53;;
51943;SDS011;37969;53.132;6.370;2022-12-29T08:05:27;22.40;;;3.80;;
51943;SDS011;37969;53.132;6.370;2022-12-29T08:07:53;21.15;;;3.55;;
51943;SDS011;37969;53.132;6.370;2022-12-29T08:10:19;17.92;;;2.47;;
51943;SDS011;37969;53.132;6.370;2022-12-29T08:12:45;20.92;;;3.13;;
51943;SDS011;37969;53.132;6.370;2022-12-29T08:15:11;23.23;;;3.75;;
51943;SDS011;37969;53.132;6.370;2022-12-29T08:17:38;19.63;;;3.00;;
51943;SDS011;37969;53.132;6.370;2022-12-29T08:20:04;19.80;;;4.10;;
51943;SDS011;37969;53.132;6.370;2022-12-29T08:22:30;21.33;;;3.38;;
51943;SDS011;37969;53.132;6.370;2022-12-29T08:24:56;17.15;;;3.05;;
51943;SDS011;37969;53.132;6.370;2022-12-29T08:27:23;27.23;;;4.40;;
51943;SDS011;37969;53.132;6.370;2022-12-29T08:29:49;21.30;;;2.95;;
51943;SDS011;37969;53.132;6.370;2022-12-29T08:32:15;19.58;;;3.30;;
51943;SDS011;37969;53.132;6.370;2022-12-29T08:34:41;18.98;;;3.33;;
51943;SDS011;37969;53.132;6.370;2022-12-29T08:37:08;29.25;;;3.97;;
51943;SDS011;37969;53.132;6.370;2022-12-29T08:39:34;22.77;;;3.80;;
51943;SDS011;37969;53.132;6.370;2022-12-29T08:42:00;27.80;;;4.07;;
51943;SDS011;37969;53.132;6.370;2022-12-29T08:44:26;26.23;;;3.92;;
51943;SDS011;37969;53.132;6.370;2022-12-29T08:46:52;20.77;;;3.22;;
51943;SDS011;37969;53.132;6.370;2022-12-29T08:49:18;22.35;;;4.07;;
51943;SDS011;37969;53.132;6.370;2022-12-29T08:51:45;22.90;;;4.53;;
51943;SDS011;37969;53.132;6.370;2022-12-29T08:54:11;20.83;;;4.00;;
51943;SDS011;37969;53.132;6.370;2022-12-29T08:56:37;25.70;;;4.30;;
51943;SDS011;37969;53.132;6.370;2022-12-29T08:59:03;23.02;;;4.18;;
51943;SDS011;37969;53.132;6.370;2022-12-29T09:01:30;27.33;;;4.60;;
51943;SDS011;37969;53.132;6.370;2022-12-29T09:03:56;23.05;;;4.70;;
51943;SDS011;37969;53.132;6.370;2022-12-29T09:06:22;21.15;;;3.72;;
51943;SDS011;37969;53.132;6.370;2022-12-29T09:08:48;28.70;;;4.53;;
51943;SDS011;37969;53.132;6.370;2022-12-29T09:11:16;32.30;;;4.57;;
51943;SDS011;37969;53.132;6.370;2022-12-29T09:13:42;25.10;;;4.25;;
51943;SDS011;37969;53.132;6.370;2022-12-29T09:16:08;22.35;;;5.07;;
51943;SDS011;37969;53.132;6.370;2022-12-29T09:18:35;29.75;;;4.47;;
51943;SDS011;37969;53.132;6.370;2022-12-29T09:21:02;30.98;;;5.45;;
51943;SDS011;37969;53.132;6.370;2022-12-29T09:23:29;23.27;;;4.55;;
51943;SDS011;37969;53.132;6.370;2022-12-29T09:25:55;25.25;;;3.83;;
51943;SDS011;37969;53.132;6.370;2022-12-29T09:28:21;22.23;;;3.83;;
51943;SDS011;37969;53.132;6.370;2022-12-29T09:30:48;24.38;;;4.32;;
51943;SDS011;37969;53.132;6.370;2022-12-29T09:33:14;22.25;;;3.72;;
51943;SDS011;37969;53.132;6.370;2022-12-29T09:35:41;29.90;;;4.45;;
51943;SDS011;37969;53.132;6.370;2022-12-29T09:38:08;22.88;;;3.85;;
51943;SDS011;37969;53.132;6.370;2022-12-29T09:40:34;21.92;;;3.83;;
51943;SDS011;37969;53.132;6.370;2022-12-29T09:43:11;25.63;;;4.32;;
51943;SDS011;37969;53.132;6.370;2022-12-29T09:48:08;11.15;;;3.13;;
51943;SDS011;37969;53.132;6.370;2022-12-29T09:50:37;18.40;;;3.80;;
51943;SDS011;37969;53.132;6.370;2022-12-29T09:53:05;21.40;;;3.53;;
51943;SDS011;37969;53.132;6.370;2022-12-29T09:55:39;16.23;;;4.15;;
51943;SDS011;37969;53.132;6.370;2022-12-29T09:58:12;12.18;;;2.67;;
51943;SDS011;37969;53.132;6.370;2022-12-29T10:00:41;20.65;;;3.25;;
51943;SDS011;37969;53.132;6.370;2022-12-29T10:03:19;23.42;;;3.88;;
51943;SDS011;37969;53.132;6.370;2022-12-29T10:05:56;18.90;;;3.45;;
51943;SDS011;37969;53.132;6.370;2022-12-29T10:08:28;13.20;;;3.67;;
51943;SDS011;37969;53.132;6.370;2022-12-29T10:10:56;20.50;;;4.38;;
51943;SDS011;37969;53.132;6.370;2022-12-29T10:13:27;17.17;;;3.17;;
51943;SDS011;37969;53.132;6.370;2022-12-29T10:15:56;24.60;;;3.70;;
51943;SDS011;37969;53.132;6.370;2022-12-29T10:18:29;16.98;;;3.30;;
51943;SDS011;37969;53.132;6.370;2022-12-29T10:21:01;13.65;;;2.33;;
51943;SDS011;37969;53.132;6.370;2022-12-29T10:25:58;18.63;;;3.25;;
51943;SDS011;37969;53.132;6.370;2022-12-29T10:30:51;17.50;;;3.88;;
51943;SDS011;37969;53.132;6.370;2022-12-29T10:33:19;20.70;;;4.15;;
51943;SDS011;37969;53.132;6.370;2022-12-29T10:38:19;17.85;;;3.60;;
51943;SDS011;37969;53.132;6.370;2022-12-29T10:40:51;21.13;;;3.80;;
51943;SDS011;37969;53.132;6.370;2022-12-29T10:43:25;24.90;;;4.10;;
51943;SDS011;37969;53.132;6.370;2022-12-29T10:45:58;25.85;;;3.95;;
51943;SDS011;37969;53.132;6.370;2022-12-29T10:48:27;17.95;;;3.33;;
51943;SDS011;37969;53.132;6.370;2022-12-29T10:50:56;23.55;;;4.22;;
51943;SDS011;37969;53.132;6.370;2022-12-29T10:53:25;22.25;;;4.28;;
51943;SDS011;37969;53.132;6.370;2022-12-29T10:55:52;20.08;;;3.53;;
51943;SDS011;37969;53.132;6.370;2022-12-29T10:58:19;19.73;;;3.50;;
51943;SDS011;37969;53.132;6.370;2022-12-29T11:00:49;21.15;;;3.20;;
51943;SDS011;37969;53.132;6.370;2022-12-29T11:03:25;43.55;;;8.18;;
51943;SDS011;37969;53.132;6.370;2022-12-29T11:05:57;22.20;;;4.70;;
51943;SDS011;37969;53.132;6.370;2022-12-29T11:08:26;32.15;;;4.95;;
51943;SDS011;37969;53.132;6.370;2022-12-29T11:10:58;30.48;;;5.10;;
51943;SDS011;37969;53.132;6.370;2022-12-29T11:13:26;25.90;;;4.72;;
51943;SDS011;37969;53.132;6.370;2022-12-29T11:15:52;30.10;;;4.60;;
51943;SDS011;37969;53.132;6.370;2022-12-29T11:18:20;28.10;;;4.70;;
51943;SDS011;37969;53.132;6.370;2022-12-29T11:20:47;24.23;;;4.22;;
51943;SDS011;37969;53.132;6.370;2022-12-29T11:23:25;38.53;;;4.97;;
51943;SDS011;37969;53.132;6.370;2022-12-29T11:28:32;32.38;;;5.50;;
51943;SDS011;37969;53.132;6.370;2022-12-29T11:31:00;36.55;;;5.40;;
51943;SDS011;37969;53.132;6.370;2022-12-29T11:33:28;25.27;;;3.90;;
51943;SDS011;37969;53.132;6.370;2022-12-29T11:36:02;31.42;;;4.28;;
51943;SDS011;37969;53.132;6.370;2022-12-29T11:38:33;30.92;;;4.88;;
51943;SDS011;37969;53.132;6.370;2022-12-29T11:41:00;23.63;;;4.97;;
51943;SDS011;37969;53.132;6.370;2022-12-29T11:43:30;29.73;;;4.50;;
51943;SDS011;37969;53.132;6.370;2022-12-29T11:45:58;29.00;;;4.70;;
51943;SDS011;37969;53.132;6.370;2022-12-29T11:48:25;28.02;;;4.47;;
51943;SDS011;37969;53.132;6.370;2022-12-29T11:50:55;24.38;;;4.45;;
51943;SDS011;37969;53.132;6.370;2022-12-29T11:53:23;31.38;;;4.55;;
51943;SDS011;37969;53.132;6.370;2022-12-29T11:55:55;33.50;;;6.47;;
51943;SDS011;37969;53.132;6.370;2022-12-29T11:58:27;31.83;;;6.10;;
51943;SDS011;37969;53.132;6.370;2022-12-29T12:00:54;29.05;;;4.93;;
51943;SDS011;37969;53.132;6.370;2022-12-29T12:03:23;36.40;;;6.68;;
51943;SDS011;37969;53.132;6.370;2022-12-29T12:10:58;29.45;;;5.38;;
51943;SDS011;37969;53.132;6.370;2022-12-29T12:13:27;33.90;;;4.95;;
51943;SDS011;37969;53.132;6.370;2022-12-29T12:16:02;22.00;;;4.18;;
51943;SDS011;37969;53.132;6.370;2022-12-29T12:18:39;35.00;;;5.05;;
51943;SDS011;37969;53.132;6.370;2022-12-29T12:21:41;32.55;;;5.18;;
51943;SDS011;37969;53.132;6.370;2022-12-29T12:26:55;29.50;;;4.47;;
51943;SDS011;37969;53.132;6.370;2022-12-29T12:29:24;27.52;;;4.85;;
51943;SDS011;37969;53.132;6.370;2022-12-29T12:34:19;36.22;;;5.18;;
51943;SDS011;37969;53.132;6.370;2022-12-29T12:39:34;28.23;;;4.75;;
51943;SDS011;37969;53.132;6.370;2022-12-29T12:42:18;21.40;;;4.03;;
51943;SDS011;37969;53.132;6.370;2022-12-29T12:47:27;19.27;;;3.47;;
51943;SDS011;37969;53.132;6.370;2022-12-29T12:50:02;17.65;;;3.05;;
51943;SDS011;37969;53.132;6.370;2022-12-29T12:55:10;21.17;;;4.25;;
51943;SDS011;37969;53.132;6.370;2022-12-29T12:57:53;18.75;;;2.75;;
51943;SDS011;37969;53.132;6.370;2022-12-29T13:00:23;19.38;;;3.10;;
51943;SDS011;37969;53.132;6.370;2022-12-29T13:02:56;12.02;;;2.17;;
51943;SDS011;37969;53.132;6.370;2022-12-29T13:05:38;17.33;;;2.80;;
51943;SDS011;37969;53.132;6.370;2022-12-29T13:08:18;19.93;;;2.53;;
51943;SDS011;37969;53.132;6.370;2022-12-29T13:10:52;22.05;;;5.18;;
51943;SDS011;37969;53.132;6.370;2022-12-29T13:13:55;12.13;;;2.63;;
51943;SDS011;37969;53.132;6.370;2022-12-29T13:16:22;17.65;;;2.85;;
51943;SDS011;37969;53.132;6.370;2022-12-29T13:21:33;16.55;;;2.78;;
51943;SDS011;37969;53.132;6.370;2022-12-29T13:26:32;11.55;;;2.20;;
51943;SDS011;37969;53.132;6.370;2022-12-29T13:29:16;13.55;;;2.55;;
51943;SDS011;37969;53.132;6.370;2022-12-29T13:37:08;24.88;;;4.05;;
51943;SDS011;37969;53.132;6.370;2022-12-29T13:39:38;16.55;;;3.15;;
51943;SDS011;37969;53.132;6.370;2022-12-29T13:42:05;17.80;;;2.87;;
51943;SDS011;37969;53.132;6.370;2022-12-29T13:44:37;12.35;;;2.10;;
51943;SDS011;37969;53.132;6.370;2022-12-29T13:47:06;11.48;;;2.35;;
51943;SDS011;37969;53.132;6.370;2022-12-29T13:49:41;13.13;;;2.50;;
51943;SDS011;37969;53.132;6.370;2022-12-29T13:52:21;16.08;;;2.92;;
51943;SDS011;37969;53.132;6.370;2022-12-29T13:54:54;12.40;;;2.08;;
51943;SDS011;37969;53.132;6.370;2022-12-29T13:57:31;14.60;;;2.28;;
51943;SDS011;37969;53.132;6.370;2022-12-29T14:00:03;18.27;;;2.95;;
51943;SDS011;37969;53.132;6.370;2022-12-29T14:05:00;16.85;;;2.60;;
51943;SDS011;37969;53.132;6.370;2022-12-29T14:07:26;10.70;;;2.35;;
51943;SDS011;37969;53.132;6.370;2022-12-29T14:09:54;20.10;;;3.22;;
51943;SDS011;37969;53.132;6.370;2022-12-29T14:14:47;12.80;;;2.70;;
51943;SDS011;37969;53.132;6.370;2022-12-29T14:17:16;16.08;;;2.63;;
51943;SDS011;37969;53.132;6.370;2022-12-29T14:19:43;15.15;;;2.03;;
51943;SDS011;37969;53.132;6.370;2022-12-29T14:22:10;10.75;;;2.17;;
51943;SDS011;37969;53.132;6.370;2022-12-29T14:24:39;17.30;;;3.00;;
51943;SDS011;37969;53.132;6.370;2022-12-29T14:34:51;18.10;;;2.55;;
51943;SDS011;37969;53.132;6.370;2022-12-29T14:37:25;23.63;;;3.72;;
51943;SDS011;37969;53.132;6.370;2022-12-29T14:40:06;17.25;;;3.00;;
51943;SDS011;37969;53.132;6.370;2022-12-29T14:42:40;20.50;;;2.78;;
51943;SDS011;37969;53.132;6.370;2022-12-29T14:45:23;20.88;;;3.33;;
51943;SDS011;37969;53.132;6.370;2022-12-29T14:47:51;16.08;;;3.08;;
51943;SDS011;37969;53.132;6.370;2022-12-29T14:50:35;21.67;;;3.17;;
51943;SDS011;37969;53.132;6.370;2022-12-29T14:53:03;23.52;;;2.90;;
51943;SDS011;37969;53.132;6.370;2022-12-29T14:55:39;16.58;;;3.22;;
51943;SDS011;37969;53.132;6.370;2022-12-29T14:58:14;19.10;;;3.08;;
51943;SDS011;37969;53.132;6.370;2022-12-29T15:00:42;19.92;;;3.08;;
51943;SDS011;37969;53.132;6.370;2022-12-29T15:03:13;16.02;;;3.08;;
51943;SDS011;37969;53.132;6.370;2022-12-29T15:05:46;21.92;;;4.05;;
51943;SDS011;37969;53.132;6.370;2022-12-29T15:08:13;18.85;;;3.47;;
51943;SDS011;37969;53.132;6.370;2022-12-29T15:10:45;22.08;;;3.45;;
51943;SDS011;37969;53.132;6.370;2022-12-29T15:13:14;20.40;;;3.38;;
51943;SDS011;37969;53.132;6.370;2022-12-29T15:15:41;21.83;;;4.05;;
51943;SDS011;37969;53.132;6.370;2022-12-29T15:18:12;20.70;;;3.33;;
51943;SDS011;37969;53.132;6.370;2022-12-29T15:20:39;26.98;;;3.28;;
51943;SDS011;37969;53.132;6.370;2022-12-29T15:23:09;14.23;;;2.55;;
51943;SDS011;37969;53.132;6.370;2022-12-29T15:25:36;26.60;;;3.60;;
51943;SDS011;37969;53.132;6.370;2022-12-29T15:28:04;20.48;;;3.53;;
51943;SDS011;37969;53.132;6.370;2022-12-29T15:30:30;17.75;;;2.85;;
51943;SDS011;37969;53.132;6.370;2022-12-29T15:32:57;21.20;;;3.15;;
51943;SDS011;37969;53.132;6.370;2022-12-29T15:37:49;17.20;;;3.20;;
51943;SDS011;37969;53.132;6.370;2022-12-29T15:40:31;18.25;;;3.42;;
51943;SDS011;37969;53.132;6.370;2022-12-29T15:43:03;15.68;;;2.70;;
51943;SDS011;37969;53.132;6.370;2022-12-29T15:45:33;22.42;;;3.10;;
51943;SDS011;37969;53.132;6.370;2022-12-29T15:48:00;17.23;;;2.88;;
51943;SDS011;37969;53.132;6.370;2022-12-29T15:50:28;19.23;;;3.00;;
51943;SDS011;37969;53.132;6.370;2022-12-29T15:52:55;19.88;;;2.90;;
51943;SDS011;37969;53.132;6.370;2022-12-29T15:55:28;18.90;;;3.00;;
51943;SDS011;37969;53.132;6.370;2022-12-29T15:57:57;15.23;;;3.17;;
51943;SDS011;37969;53.132;6.370;2022-12-29T16:00:25;22.48;;;2.80;;
51943;SDS011;37969;53.132;6.370;2022-12-29T16:02:52;24.05;;;2.83;;
51943;SDS011;37969;53.132;6.370;2022-12-29T16:05:19;17.33;;;2.83;;